Time;durP1;ratioP1;P1;durP2;ratioP2;P2;SDS_P1;SDS_P2;PMS_P1;PMS_P2;Temp;Humidity;BMP_temperature;BMP_pressure;BME280_temperature;BME280_humidity;BME280_pressure;Samples;Min_cycle;Max_cycle;Signal;HPM_P1;HPM_P2
2023/01/12 00:01:53;;;;;;;18.20;3.90;;;;;;;-5.35;73.55;100694.29;79547;1295;3011569;-65
2023/01/12 00:04:21;;;;;;;11.00;2.70;;;;;;;-5.30;73.41;100693.89;78259;1296;3056096;-65
2023/01/12 00:06:48;;;;;;;16.10;3.80;;;;;;;-5.48;73.84;100688.70;79503;1293;3013053;-63
2023/01/12 00:09:14;;;;;;;10.50;4.00;;;;;;;-5.65;74.20;100684.36;79546;1293;3011584;-64
2023/01/12 00:11:43;;;;;;;11.90;3.10;;;;;;;-5.62;74.28;100698.76;78248;1296;3051969;-63
2023/01/12 00:14:10;;;;;;;6.60;2.70;;;;;;;-5.53;74.19;100694.02;79534;1296;3013473;-62
2023/01/12 00:16:37;;;;;;;13.80;3.30;;;;;;;-5.64;74.52;100690.00;79567;1293;3011688;-64
2023/01/12 00:19:11;;;;;;;8.30;2.20;;;;;;;-5.79;75.37;100693.23;78257;1296;3028059;-61
2023/01/12 00:21:55;;;;;;;13.20;3.20;;;;;;;-5.67;74.81;100696.42;79542;1293;3011848;-64
2023/01/12 00:24:44;;;;;;;16.20;3.20;;;;;;;-5.66;74.54;100694.39;78449;1296;3053709;-63
2023/01/12 00:27:17;;;;;;;13.60;3.50;;;;;;;-5.63;74.88;100692.41;78305;1296;3050368;-63
2023/01/12 00:29:48;;;;;;;12.60;4.00;;;;;;;-5.52;74.56;100691.14;78400;1296;3051548;-64
2023/01/12 00:32:17;;;;;;;13.00;3.30;;;;;;;-5.57;74.46;100688.81;79490;1299;3018282;-64
2023/01/12 00:34:44;;;;;;;26.30;3.40;;;;;;;-5.58;74.63;100696.45;79678;1296;3013244;-64
2023/01/12 00:37:12;;;;;;;11.80;2.90;;;;;;;-5.63;74.43;100692.61;78420;1296;3056431;-64
2023/01/12 00:39:40;;;;;;;17.00;3.80;;;;;;;-5.63;74.48;100686.11;79716;1294;3013288;-63
2023/01/12 00:47:41;;;;;;;19.20;3.70;;;;;;;-5.50;74.55;100689.32;78126;1296;3053504;-64
2023/01/12 00:50:08;;;;;;;12.10;3.50;;;;;;;-5.51;74.66;100685.04;79505;1292;3013612;-63
2023/01/12 00:52:35;;;;;;;11.40;3.60;;;;;;;-5.56;74.78;100682.86;79569;1294;3011787;-63
2023/01/12 00:55:03;;;;;;;11.10;2.50;;;;;;;-5.47;74.49;100681.88;78122;1296;3048477;-63
2023/01/12 00:57:30;;;;;;;11.90;3.40;;;;;;;-5.47;74.35;100679.31;79418;1293;3012830;-64
2023/01/12 00:59:58;;;;;;;6.50;2.40;;;;;;;-5.55;74.10;100677.25;79562;1296;3012516;-65
2023/01/12 01:02:27;;;;;;;15.60;2.70;;;;;;;-5.51;74.30;100670.52;78410;1296;3052247;-64
2023/01/12 01:04:54;;;;;;;6.60;2.30;;;;;;;-5.59;74.51;100668.45;79597;1297;3013243;-64
2023/01/12 01:07:20;;;;;;;11.00;3.00;;;;;;;-5.64;75.16;100669.02;79397;1292;3011625;-63
2023/01/12 01:09:48;;;;;;;9.60;3.20;;;;;;;-5.58;74.76;100664.38;78186;1296;3025900;-61
2023/01/12 01:12:16;;;;;;;16.00;3.20;;;;;;;-5.62;74.60;100655.08;79641;1294;3014742;-62
2023/01/12 01:14:42;;;;;;;15.80;3.40;;;;;;;-5.65;74.84;100653.47;79464;1296;3011632;-64
2023/01/12 01:17:11;;;;;;;11.40;3.10;;;;;;;-5.68;74.89;100652.52;78395;1296;3052118;-63
2023/01/12 01:19:38;;;;;;;11.90;2.70;;;;;;;-5.62;74.59;100659.33;79635;1295;3014529;-65
2023/01/12 01:22:05;;;;;;;8.10;2.60;;;;;;;-5.61;74.55;100664.30;79599;1293;3011679;-63
2023/01/12 01:24:33;;;;;;;15.80;3.50;;;;;;;-5.57;74.82;100662.17;78288;1296;3048782;-64
2023/01/12 01:26:59;;;;;;;11.80;2.90;;;;;;;-5.65;74.75;100660.96;79495;1294;3012882;-64
2023/01/12 01:29:26;;;;;;;7.20;2.90;;;;;;;-5.67;74.70;100667.73;79589;1296;3011953;-62
2023/01/12 01:31:54;;;;;;;11.00;2.80;;;;;;;-5.60;75.10;100668.44;78489;1296;3028055;-63
2023/01/12 01:34:22;;;;;;;9.00;3.10;;;;;;;-5.56;75.05;100659.66;79636;1296;3013094;-64
2023/01/12 01:36:53;;;;;;;15.20;3.50;;;;;;;-5.61;75.02;100661.40;78951;1293;3011721;-63
2023/01/12 01:39:19;;;;;;;12.30;3.10;;;;;;;-5.60;74.76;100659.90;79640;1296;3012073;-64
2023/01/12 01:41:46;;;;;;;11.70;2.50;;;;;;;-5.67;74.82;100661.09;79493;1296;3011612;-63
2023/01/12 01:44:30;;;;;;;15.80;3.30;;;;;;;-5.65;74.64;100662.14;78301;1296;3049565;-64
2023/01/12 01:47:01;;;;;;;;;;;;;;;-5.75;75.13;100662.06;78357;1296;3051958;-62
2023/01/12 01:49:28;;;;;;;6.60;2.30;;;;;;;-5.70;75.31;100666.12;79656;1296;3013231;-63
2023/01/12 01:51:59;;;;;;;14.10;3.40;;;;;;;-5.62;75.04;100669.22;78246;1296;3025743;-64
2023/01/12 01:54:27;;;;;;;11.50;3.00;;;;;;;-5.50;74.19;100669.36;79611;1296;3012915;-64
2023/01/12 01:56:55;;;;;;;14.30;3.00;;;;;;;-5.61;74.23;100670.63;78411;1296;3027091;-64
2023/01/12 01:59:27;;;;;;;8.00;2.70;;;;;;;-5.71;74.39;100672.07;79472;1296;3013048;-64
2023/01/12 02:01:55;;;;;;;6.50;2.40;;;;;;;-5.58;74.43;100672.41;78255;1298;3052380;-65
2023/01/12 02:04:21;;;;;;;13.80;2.40;;;;;;;-5.59;74.25;100665.70;79636;1296;3013343;-64
2023/01/12 02:06:48;;;;;;;11.10;3.00;;;;;;;-5.73;74.63;100662.81;79621;1294;3013190;-62
2023/01/12 02:09:18;;;;;;;6.70;2.80;;;;;;;-5.73;75.08;100659.23;78431;1294;3027290;-62
2023/01/12 02:17:42;;;;;;;13.10;2.50;;;;;;;-5.81;75.32;100663.30;78324;1293;3049110;-63
2023/01/12 02:20:47;;;;;;;4.30;2.50;;;;;;;-5.69;74.86;100655.75;78420;1291;3053262;-64
2023/01/12 02:23:19;;;;;;;12.80;2.60;;;;;;;-5.64;75.28;100666.27;78489;1295;3050647;-65
2023/01/12 02:26:11;;;;;;;8.50;2.90;;;;;;;-5.65;74.54;100665.05;79654;1291;3011698;-64
2023/01/12 02:29:06;;;;;;;9.20;2.90;;;;;;;-5.66;75.04;100668.29;78529;1291;3054294;-66
2023/01/12 02:31:52;;;;;;;15.00;3.10;;;;;;;-5.60;74.32;100665.18;78574;1297;3070200;-64
2023/01/12 02:34:43;;;;;;;7.60;3.40;;;;;;;-5.65;75.18;100665.05;78430;1297;3051794;-63
2023/01/12 02:37:20;;;;;;;7.30;2.90;;;;;;;-5.66;75.02;100660.77;78492;1291;3057522;-64
2023/01/12 02:39:58;;;;;;;12.20;2.80;;;;;;;-5.68;75.40;100654.75;78454;1295;3050147;-64
2023/01/12 02:42:56;;;;;;;6.50;2.50;;;;;;;-5.57;75.24;100650.56;78418;1297;3052706;-63
2023/01/12 02:45:36;;;;;;;4.90;2.30;;;;;;;-5.49;74.40;100644.27;78289;1296;3050775;-64
2023/01/12 02:48:14;;;;;;;6.00;1.90;;;;;;;-5.53;75.04;100645.88;78430;1297;3052434;-63
2023/01/12 02:50:54;;;;;;;10.00;3.10;;;;;;;-5.60;75.42;100643.85;78295;1297;3053016;-63
2023/01/12 02:53:50;;;;;;;7.00;2.80;;;;;;;-5.57;75.04;100637.25;78555;1291;3068732;-62
2023/01/12 02:56:23;;;;;;;14.30;2.50;;;;;;;-5.55;75.41;100637.98;78295;1291;3051082;-62
2023/01/12 02:58:54;;;;;;;4.30;2.00;;;;;;;-5.57;75.37;100633.83;79429;1291;3012619;-63
2023/01/12 03:01:23;;;;;;;7.00;2.50;;;;;;;-5.63;75.53;100630.63;78409;1295;3050303;-63
2023/01/12 03:03:50;;;;;;;12.30;2.50;;;;;;;-5.61;75.48;100629.65;79546;1291;3012953;-62
2023/01/12 03:06:16;;;;;;;4.90;2.50;;;;;;;-5.61;75.36;100619.58;79583;1297;3011389;-63
2023/01/12 03:08:45;;;;;;;7.20;2.90;;;;;;;-5.59;75.90;100622.52;78460;1295;3025743;-62
2023/01/12 03:11:14;;;;;;;6.60;2.70;;;;;;;-5.56;75.28;100620.89;79516;1297;3014175;-62
2023/01/12 03:13:55;;;;;;;13.50;2.90;;;;;;;-5.56;75.80;100616.28;78240;1296;3057025;-61
2023/01/12 03:16:25;;;;;;;8.50;2.10;;;;;;;-5.54;75.78;100619.06;78310;1297;3049462;-63
2023/01/12 03:18:57;;;;;;;4.50;2.40;;;;;;;-5.42;75.17;100616.76;79649;1291;3013188;-63
2023/01/12 03:21:29;;;;;;;7.10;3.00;;;;;;;-5.51;75.89;100612.45;78459;1297;3049242;-62
2023/01/12 03:24:03;;;;;;;12.50;3.70;;;;;;;-5.57;75.89;100617.62;79815;1291;3011626;-62
2023/01/12 03:26:32;;;;;;;6.30;2.80;;;;;;;-5.54;76.24;100617.36;78374;1297;3052564;-62
2023/01/12 03:29:06;;;;;;;9.50;2.50;;;;;;;-5.52;75.59;100611.94;79643;1296;3015963;-61
2023/01/12 03:31:35;;;;;;;11.50;2.40;;;;;;;-5.56;75.67;100617.12;78490;1296;3058382;-64
2023/01/12 03:34:02;;;;;;;11.30;2.70;;;;;;;-5.57;76.10;100616.94;79696;1291;3013362;-64
2023/01/12 03:36:45;;;;;;;10.30;2.20;;;;;;;-5.44;75.78;100622.52;79430;1292;3011648;-64
2023/01/12 03:39:25;;;;;;;10.90;2.80;;;;;;;-5.52;76.16;100614.99;78395;1295;3052867;-63
2023/01/12 03:41:56;;;;;;;4.80;2.70;;;;;;;-5.49;76.11;100608.92;78371;1296;3053008;-65
2023/01/12 03:44:29;;;;;;;7.40;3.20;;;;;;;-5.48;75.97;100609.95;79769;1292;3011877;-63
2023/01/12 03:47:00;;;;;;;7.80;2.20;;;;;;;-5.46;75.77;100613.09;78490;1297;3052397;-67
2023/01/12 03:49:52;;;;;;;8.40;3.20;;;;;;;-5.48;76.12;100613.38;79837;1294;3011993;-62
2023/01/12 03:52:19;;;;;;;11.20;2.60;;;;;;;-5.54;76.38;100610.34;78329;1296;3049142;-64
2023/01/12 03:54:46;;;;;;;7.80;2.30;;;;;;;-5.45;75.99;100608.33;79639;1292;3013262;-64
2023/01/12 03:57:13;;;;;;;11.00;3.50;;;;;;;-5.48;76.25;100604.33;79569;1294;3012964;-63
2023/01/12 03:59:42;;;;;;;7.30;3.00;;;;;;;-5.50;76.41;100608.58;78283;1294;3052473;-63
2023/01/12 04:02:08;;;;;;;11.80;3.30;;;;;;;-5.41;76.45;100607.23;79606;1297;3018700;-61
2023/01/12 04:04:36;;;;;;;6.40;3.40;;;;;;;-5.42;76.64;100602.58;79702;1294;3011532;-64
2023/01/12 04:07:04;;;;;;;4.60;2.70;;;;;;;-5.34;76.20;100591.83;78358;1291;3047461;-66
2023/01/12 04:09:32;;;;;;;9.70;2.90;;;;;;;-5.39;76.26;100590.02;79716;1294;3013289;-64
2023/01/12 04:12:11;;;;;;;9.00;3.10;;;;;;;-5.36;76.25;100585.65;79641;1291;3013171;-65
2023/01/12 04:14:43;;;;;;;5.60;2.40;;;;;;;-5.29;75.99;100580.00;78540;1295;3052933;-63
2023/01/12 04:17:12;;;;;;;10.00;3.30;;;;;;;-5.38;76.30;100576.71;79574;1292;3011643;-62
2023/01/12 04:19:39;;;;;;;7.30;2.50;;;;;;;-5.38;76.60;100573.81;78385;1291;3050125;-62
2023/01/12 04:24:53;;;;;;;7.00;2.70;;;;;;;-5.39;76.66;100565.92;78440;1297;3052306;-65
2023/01/12 04:27:19;;;;;;;13.30;2.80;;;;;;;-5.29;76.27;100570.07;79720;1295;3018627;-64
2023/01/12 04:29:46;;;;;;;20.50;3.70;;;;;;;-5.16;76.20;100570.84;79635;1291;3013050;-61
2023/01/12 04:32:14;;;;;;;12.30;3.40;;;;;;;-5.22;76.42;100575.34;78497;1295;3026502;-63
2023/01/12 04:34:41;;;;;;;14.70;2.60;;;;;;;-5.26;76.16;100574.93;79593;1295;3019360;-62
2023/01/12 04:37:07;;;;;;;7.10;2.60;;;;;;;-5.29;76.22;100579.30;79457;1296;3011580;-63
2023/01/12 04:39:35;;;;;;;16.70;3.80;;;;;;;-5.29;76.25;100570.93;78192;1296;3027049;-61
2023/01/12 04:42:02;;;;;;;16.10;2.90;;;;;;;-5.34;76.46;100563.84;79363;1297;3013071;-63
2023/01/12 04:44:29;;;;;;;11.90;3.30;;;;;;;-5.33;76.63;100561.79;79595;1296;3013191;-64
2023/01/12 04:46:57;;;;;;;15.70;3.70;;;;;;;-5.30;76.20;100560.84;78409;1295;3029005;-62
2023/01/12 04:49:23;;;;;;;7.20;2.80;;;;;;;-5.31;76.38;100565.94;79579;1296;3018439;-62
2023/01/12 04:51:51;;;;;;;5.00;2.10;;;;;;;-5.33;76.29;100559.93;79627;1292;3012837;-61
2023/01/12 04:54:19;;;;;;;11.00;3.00;;;;;;;-5.31;76.35;100554.49;78407;1295;3054001;-62
2023/01/12 04:56:45;;;;;;;9.20;3.00;;;;;;;-5.30;75.97;100559.63;79576;1295;3013107;-62
2023/01/12 04:59:13;;;;;;;10.60;2.80;;;;;;;-5.28;76.43;100554.23;79554;1295;3011937;-63
2023/01/12 05:01:41;;;;;;;8.80;2.70;;;;;;;-5.29;75.98;100554.20;78352;1297;3071478;-64
2023/01/12 05:04:08;;;;;;;4.00;2.10;;;;;;;-5.20;75.69;100553.02;79727;1291;3020601;-62
2023/01/12 05:06:34;;;;;;;6.80;2.90;;;;;;;-5.29;75.92;100552.33;79677;1295;3013077;-63
2023/01/12 05:11:49;;;;;;;7.00;2.00;;;;;;;-5.36;75.98;100557.29;78498;1295;3051214;-63
2023/01/12 05:14:15;;;;;;;2.90;1.70;;;;;;;-5.18;75.62;100560.24;79682;1296;3018815;-66
2023/01/12 05:16:42;;;;;;;10.60;3.40;;;;;;;-5.19;75.69;100553.38;79701;1293;3014491;-64
2023/01/12 05:19:11;;;;;;;6.40;2.90;;;;;;;-5.26;75.98;100555.47;78396;1297;3051079;-65
2023/01/12 05:21:37;;;;;;;11.90;3.20;;;;;;;-5.25;76.35;100559.23;79707;1297;3019282;-68
2023/01/12 05:24:04;;;;;;;14.30;4.10;;;;;;;-5.20;76.17;100558.84;79576;1291;3013130;-66
2023/01/12 05:26:33;;;;;;;7.20;2.90;;;;;;;-5.22;75.55;100567.16;78409;1296;3050126;-62
2023/01/12 05:29:00;;;;;;;4.90;2.20;;;;;;;-5.22;75.96;100565.79;79577;1296;3013229;-65
2023/01/12 05:31:26;;;;;;;9.30;2.70;;;;;;;-5.28;76.04;100560.89;79709;1296;3011827;-62
2023/01/12 05:33:55;;;;;;;6.20;2.20;;;;;;;-5.28;76.23;100558.66;78446;1297;3028016;-65
2023/01/12 05:36:21;;;;;;;6.40;2.50;;;;;;;-5.32;76.10;100559.44;79738;1295;3012979;-64
2023/01/12 05:38:48;;;;;;;7.50;2.40;;;;;;;-5.32;76.08;100553.96;79635;1291;3011739;-61
2023/01/12 05:41:16;;;;;;;6.20;2.80;;;;;;;-5.26;75.88;100552.73;78439;1291;3028076;-65
2023/01/12 05:43:49;;;;;;;6.90;3.30;;;;;;;-5.22;75.97;100552.98;79576;1297;3013448;-63
2023/01/12 05:46:28;;;;;;;4.00;2.50;;;;;;;-5.29;75.90;100549.77;78573;1296;3069145;-66
2023/01/12 05:48:59;;;;;;;6.80;3.30;;;;;;;-5.28;75.55;100549.11;78422;1291;3051047;-62
2023/01/12 05:51:25;;;;;;;9.50;3.10;;;;;;;-5.32;76.19;100552.44;79734;1295;3019265;-61
2023/01/12 05:53:53;;;;;;;7.10;2.80;;;;;;;-5.24;76.11;100553.10;79746;1293;3011531;-63
2023/01/12 05:56:26;;;;;;;8.10;3.20;;;;;;;-5.22;75.69;100557.06;78391;1296;3050456;-64
2023/01/12 05:58:55;;;;;;;6.60;2.60;;;;;;;-5.12;75.77;100561.89;79613;1297;3013262;-62
2023/01/12 06:01:25;;;;;;;4.80;2.70;;;;;;;-5.15;75.70;100559.10;79075;1295;3011800;-62
2023/01/12 06:03:53;;;;;;;7.80;2.80;;;;;;;-5.14;75.79;100557.92;79705;1296;3021038;-63
2023/01/12 06:06:20;;;;;;;12.10;4.00;;;;;;;-5.11;75.63;100556.11;79608;1295;3011601;-63
2023/01/12 06:08:50;;;;;;;6.20;2.90;;;;;;;-5.11;75.59;100559.52;78379;1294;3049343;-66
2023/01/12 06:14:05;;;;;;;6.30;2.40;;;;;;;-5.11;75.50;100551.84;78480;1296;3050590;-63
2023/01/12 06:16:32;;;;;;;8.40;2.50;;;;;;;-5.23;75.30;100553.80;79568;1295;3013865;-66
2023/01/12 06:18:58;;;;;;;6.60;2.50;;;;;;;-5.24;75.32;100550.05;79740;1295;3013073;-64
2023/01/12 06:21:26;;;;;;;7.60;2.40;;;;;;;-5.23;76.08;100550.20;78404;1295;3051774;-62
2023/01/12 06:23:53;;;;;;;8.30;2.70;;;;;;;-5.19;75.55;100548.42;79730;1293;3013316;-63
2023/01/12 06:26:19;;;;;;;5.40;2.60;;;;;;;-5.26;75.81;100546.41;78393;1295;3035784;-63
2023/01/12 06:28:46;;;;;;;10.00;2.60;;;;;;;-5.29;75.87;100546.70;79671;1296;3011459;-63
2023/01/12 06:31:14;;;;;;;11.20;2.70;;;;;;;-5.24;75.54;100545.77;78542;1297;3053554;-61
2023/01/12 06:33:41;;;;;;;9.00;2.90;;;;;;;-5.26;75.77;100552.39;79591;1296;3018509;-62
2023/01/12 06:36:07;;;;;;;8.10;3.20;;;;;;;-5.23;75.77;100555.86;79579;1296;3013062;-66
2023/01/12 06:38:36;;;;;;;6.20;2.60;;;;;;;-5.21;75.93;100555.91;78170;1293;3026469;-63
2023/01/12 06:42:27;;;;;;;11.00;2.90;;;;;;;-5.25;75.92;100555.64;79620;1297;3013411;-62
2023/01/12 06:43:56;;;;;;;10.10;2.90;;;;;;;-5.23;75.92;100549.55;78362;1297;3053047;-63
2023/01/12 06:46:23;;;;;;;6.30;2.80;;;;;;;-5.22;75.76;100547.34;79687;1297;3012741;-63
2023/01/12 06:48:49;;;;;;;3.60;2.30;;;;;;;-5.13;75.70;100547.19;79577;1297;3013006;-64
2023/01/12 06:51:17;;;;;;;6.40;2.90;;;;;;;-5.21;75.37;100546.17;78339;1297;3025905;-64
2023/01/12 06:53:44;;;;;;;6.10;2.60;;;;;;;-5.20;75.92;100543.61;79606;1292;3013713;-65
2023/01/12 06:56:10;;;;;;;7.80;3.00;;;;;;;-5.09;75.26;100550.86;79664;1296;3011612;-62
2023/01/12 06:58:41;;;;;;;5.80;3.10;;;;;;;-5.08;75.31;100546.08;78346;1304;3026464;-63
2023/01/12 07:01:08;;;;;;;8.30;3.10;;;;;;;-5.19;75.17;100547.40;79811;1297;3012117;-69
2023/01/12 07:03:36;;;;;;;6.90;3.30;;;;;;;-5.19;75.28;100546.36;78504;1296;3026579;-65
2023/01/12 07:06:02;;;;;;;8.90;3.50;;;;;;;-5.24;75.40;100547.81;79730;1297;3012955;-65
2023/01/12 07:08:30;;;;;;;11.00;3.70;;;;;;;-5.20;75.28;100547.55;79721;1296;3011613;-64
2023/01/12 07:11:06;;;;;;;8.90;3.10;;;;;;;-5.29;75.86;100546.50;78546;1296;3053681;-65
2023/01/12 07:13:34;;;;;;;5.80;2.90;;;;;;;-5.29;75.92;100545.48;78495;1295;3049707;-65
2023/01/12 07:16:01;;;;;;;5.70;3.10;;;;;;;-5.21;75.42;100549.08;79824;1295;3018329;-65
2023/01/12 07:18:28;;;;;;;4.90;3.00;;;;;;;-5.16;75.53;100549.17;79728;1295;3011638;-66
2023/01/12 07:20:55;;;;;;;7.60;2.80;;;;;;;-5.15;75.43;100551.58;78509;1293;3026642;-62
2023/01/12 07:23:22;;;;;;;4.90;2.80;;;;;;;-5.09;75.64;100552.90;79766;1295;3013619;-64
2023/01/12 07:25:56;;;;;;;5.20;2.90;;;;;;;-4.97;75.07;100548.20;79113;1291;3011713;-64
2023/01/12 07:28:22;;;;;;;5.90;3.40;;;;;;;-4.90;75.31;100550.36;79658;1295;3013121;-63
2023/01/12 07:30:49;;;;;;;5.40;2.80;;;;;;;-4.80;74.99;100547.32;79646;1293;3011488;-61
2023/01/12 07:33:17;;;;;;;7.00;3.80;;;;;;;-4.73;74.89;100549.86;78383;1305;3052240;-63
2023/01/12 07:35:43;;;;;;;6.40;3.10;;;;;;;-4.67;74.51;100543.98;79654;1296;3012005;-63
2023/01/12 07:38:10;;;;;;;6.20;3.20;;;;;;;-4.74;74.55;100546.05;79583;1295;3011714;-65
2023/01/12 07:40:38;;;;;;;6.50;3.20;;;;;;;-4.80;74.97;100545.27;78375;1297;3029616;-66
2023/01/12 07:43:06;;;;;;;5.70;3.40;;;;;;;-4.77;74.64;100536.77;79732;1297;3012888;-63
2023/01/12 07:45:33;;;;;;;8.30;2.80;;;;;;;-4.81;74.64;100541.49;79826;1299;3012344;-64
2023/01/12 07:48:01;;;;;;;3.80;2.50;;;;;;;-4.75;74.22;100540.41;78539;1297;3051888;-67
2023/01/12 07:50:28;;;;;;;12.70;3.00;;;;;;;-4.68;74.27;100538.30;79731;1296;3013286;-64
2023/01/12 07:52:59;;;;;;;10.10;3.40;;;;;;;-4.51;73.99;100538.79;79724;1291;3012096;-66
2023/01/12 07:55:29;;;;;;;19.80;4.40;;;;;;;-4.47;73.91;100538.35;78579;1293;3049643;-66
2023/01/12 07:57:59;;;;;;;9.00;3.70;;;;;;;-4.44;73.77;100530.52;79862;1296;3013476;-66
2023/01/12 08:00:28;;;;;;;9.30;3.10;;;;;;;-4.51;74.06;100531.95;78464;1297;3048981;-65
2023/01/12 08:03:03;;;;;;;9.20;3.00;;;;;;;-4.61;74.19;100529.04;80030;1295;3013538;-65
2023/01/12 08:05:32;;;;;;;8.70;3.60;;;;;;;-4.57;73.89;100523.64;78496;1293;3068723;-65
2023/01/12 08:07:58;;;;;;;10.80;3.80;;;;;;;-4.64;73.83;100519.06;79763;1304;3013359;-66
2023/01/12 08:10:25;;;;;;;13.80;4.30;;;;;;;-4.77;73.88;100530.11;79737;1293;3011799;-65
2023/01/12 08:12:53;;;;;;;6.60;3.20;;;;;;;-4.63;75.71;100520.96;78368;1297;3052509;-65
2023/01/12 08:15:19;;;;;;;9.10;3.50;;;;;;;-4.55;73.93;100523.67;79703;1308;3013847;-63
2023/01/12 08:18:07;;;;;;;5.30;3.20;;;;;;;-4.55;73.29;100513.25;79748;1297;3011663;-65
2023/01/12 08:20:35;;;;;;;11.50;3.40;;;;;;;-4.57;73.54;100514.05;78668;1297;3069436;-63
2023/01/12 08:23:05;;;;;;;11.00;4.00;;;;;;;-4.67;74.24;100515.77;79460;1294;3012837;-64
2023/01/12 08:25:34;;;;;;;6.30;3.50;;;;;;;-4.63;74.01;100519.95;78322;1292;3051943;-65
2023/01/12 08:28:02;;;;;;;7.40;4.00;;;;;;;-4.63;74.52;100512.59;79777;1295;3012679;-60
2023/01/12 08:30:31;;;;;;;8.40;3.70;;;;;;;-4.56;73.83;100508.60;79301;1295;3012922;-68
2023/01/12 08:32:59;;;;;;;8.40;3.40;;;;;;;-4.55;73.51;100504.17;79654;1295;3013166;-64
2023/01/12 08:35:26;;;;;;;5.20;2.90;;;;;;;-4.67;73.64;100503.63;79819;1295;3012842;-62
2023/01/12 08:37:55;;;;;;;6.60;3.10;;;;;;;-4.68;73.87;100504.12;78526;1291;3051433;-63
2023/01/12 08:40:23;;;;;;;7.60;3.60;;;;;;;-4.63;73.99;100505.40;79820;1294;3013468;-65
2023/01/12 08:42:49;;;;;;;6.10;3.30;;;;;;;-4.58;73.49;100502.58;79541;1293;3011944;-64
2023/01/12 08:45:19;;;;;;;5.40;2.60;;;;;;;-4.57;73.66;100506.87;78492;1303;3049655;-62
2023/01/12 08:47:47;;;;;;;7.40;2.20;;;;;;;-4.54;73.36;100502.66;79726;1295;3013224;-64
2023/01/12 08:50:13;;;;;;;2.60;2.00;;;;;;;-4.69;73.59;100501.88;80006;1291;3011265;-64
2023/01/12 08:52:43;;;;;;;6.70;2.90;;;;;;;-4.69;73.69;100499.33;78596;1294;3051534;-63
2023/01/12 08:55:10;;;;;;;4.90;2.30;;;;;;;-4.51;73.61;100500.84;79651;1294;3013656;-63
2023/01/12 08:57:37;;;;;;;9.30;2.90;;;;;;;-4.48;73.49;100496.77;79440;1294;3013931;-64
2023/01/12 09:00:06;;;;;;;7.80;3.20;;;;;;;-4.37;73.33;100498.31;78532;1298;3026264;-64
2023/01/12 09:02:33;;;;;;;7.40;3.10;;;;;;;-4.26;73.12;100498.50;79713;1297;3015830;-65
2023/01/12 09:04:59;;;;;;;8.10;4.00;;;;;;;-4.21;72.94;100496.19;79719;1296;3013494;-64
2023/01/12 09:07:30;;;;;;;9.60;4.40;;;;;;;-4.17;72.72;100491.79;78308;1297;3050735;-65
2023/01/12 09:09:56;;;;;;;8.70;4.70;;;;;;;-4.24;72.86;100493.75;79806;1297;3013143;-66
2023/01/12 09:12:25;;;;;;;8.80;3.70;;;;;;;-4.29;72.50;100488.71;79759;1294;3013083;-64
2023/01/12 09:14:54;;;;;;;9.30;3.60;;;;;;;-4.30;72.65;100491.77;78459;1296;3049215;-65
2023/01/12 09:17:21;;;;;;;10.10;3.20;;;;;;;-4.24;72.88;100489.65;79721;1297;3013068;-67
2023/01/12 09:19:49;;;;;;;8.00;4.00;;;;;;;-4.26;72.38;100482.75;79462;1296;3011772;-69
2023/01/12 09:22:17;;;;;;;10.10;3.80;;;;;;;-4.25;72.57;100480.05;78487;1296;3052852;-66
2023/01/12 09:24:44;;;;;;;6.20;3.30;;;;;;;-4.30;72.71;100481.86;79880;1293;3013271;-66
2023/01/12 09:27:11;;;;;;;6.70;2.90;;;;;;;-4.20;72.73;100483.55;79826;1295;3011933;-69
2023/01/12 09:29:39;;;;;;;8.10;3.00;;;;;;;-4.03;72.17;100481.57;78606;1296;3026350;-64
2023/01/12 09:32:06;;;;;;;9.30;3.50;;;;;;;-4.03;71.89;100479.52;79675;1292;3013053;-64
2023/01/12 09:34:35;;;;;;;7.10;3.50;;;;;;;-3.99;72.03;100482.84;79732;1291;3012983;-65
2023/01/12 09:37:03;;;;;;;8.90;3.20;;;;;;;-3.99;72.07;100478.55;78574;1296;3051604;-66
2023/01/12 09:39:30;;;;;;;7.30;3.40;;;;;;;-3.83;71.86;100478.45;79894;1291;3014401;-67
2023/01/12 09:47:38;;;;;;;9.80;3.50;;;;;;;-3.93;71.80;100472.31;78635;1295;3053296;-70
2023/01/12 09:50:09;;;;;;;10.90;3.10;;;;;;;-3.91;71.94;100474.73;79193;1296;3011629;-67
2023/01/12 09:52:59;;;;;;;8.60;3.70;;;;;;;-3.88;72.09;100473.76;79698;1297;3011966;-66
2023/01/12 09:55:30;;;;;;;8.90;4.00;;;;;;;-3.76;71.91;100472.38;78485;1296;3071681;-67
2023/01/12 09:58:09;;;;;;;16.90;4.60;;;;;;;-3.75;71.71;100466.23;79672;1293;3011656;-68
2023/01/12 10:00:39;;;;;;;8.80;4.00;;;;;;;-3.86;71.77;100465.22;78446;1297;3056866;-65
2023/01/12 10:03:08;;;;;;;12.70;3.90;;;;;;;-3.86;71.97;100463.52;79649;1296;3013401;-66
2023/01/12 10:05:51;;;;;;;17.80;4.40;;;;;;;-3.82;71.97;100464.58;79147;1293;3011967;-66
2023/01/12 10:08:35;;;;;;;11.40;4.30;;;;;;;-3.76;72.09;100462.44;78356;1296;3049999;-64
2023/01/12 10:11:04;;;;;;;;;;;;;;;-3.69;72.07;100459.63;78484;1296;3051845;-66
2023/01/12 10:13:44;;;;;;;9.40;3.30;;;;;;;-3.64;71.65;100455.58;79629;1295;3013657;-64
2023/01/12 10:16:41;;;;;;;6.10;2.90;;;;;;;-3.63;71.73;100453.87;78442;1293;3069056;-64
2023/01/12 10:19:21;;;;;;;7.40;3.10;;;;;;;-3.56;71.29;100451.76;78590;1294;3051856;-64
2023/01/12 10:21:50;;;;;;;8.50;4.10;;;;;;;-3.53;71.33;100446.30;78426;1294;3056930;-65
2023/01/12 10:24:20;;;;;;;7.20;3.50;;;;;;;-3.62;71.49;100446.70;79952;1292;3016000;-63
2023/01/12 10:27:09;;;;;;;8.90;3.80;;;;;;;-3.57;71.27;100448.13;79378;1292;3011751;-66
2023/01/12 10:29:38;;;;;;;7.10;3.40;;;;;;;-3.53;71.37;100444.25;78513;1292;3050835;-65
2023/01/12 10:32:08;;;;;;;6.40;3.10;;;;;;;-3.59;71.52;100443.48;79717;1294;3013650;-64
2023/01/12 10:34:48;;;;;;;5.90;2.70;;;;;;;-3.42;70.85;100445.25;79660;1291;3011563;-65
2023/01/12 10:37:15;;;;;;;8.00;3.50;;;;;;;-3.50;70.70;100437.10;78526;1291;3051823;-66
2023/01/12 10:39:43;;;;;;;10.30;3.40;;;;;;;-3.49;70.92;100439.52;79817;1292;3013434;-65
2023/01/12 10:45:20;;;;;;;9.70;3.60;;;;;;;-3.46;70.75;100437.84;78625;1291;3049917;-64
2023/01/12 10:47:51;;;;;;;10.20;4.10;;;;;;;-3.28;70.58;100439.41;78490;1295;3053263;-63
2023/01/12 10:50:24;;;;;;;13.70;4.50;;;;;;;-3.30;70.75;100428.59;79564;1295;3011715;-65
2023/01/12 10:53:15;;;;;;;6.20;3.60;;;;;;;-3.30;70.72;100424.48;78347;1292;3068987;-63
2023/01/12 10:55:43;;;;;;;6.00;2.90;;;;;;;-3.32;70.53;100420.51;78285;1291;3053245;-62
2023/01/12 10:58:21;;;;;;;8.50;3.20;;;;;;;-3.31;70.66;100417.95;79380;1291;3013505;-64
2023/01/12 11:00:50;;;;;;;10.00;3.40;;;;;;;-3.37;70.90;100415.15;78067;1297;3053116;-63
2023/01/12 11:03:32;;;;;;;9.90;3.90;;;;;;;-3.40;70.79;100412.70;79429;1296;3011626;-65
2023/01/12 11:06:33;;;;;;;10.00;3.70;;;;;;;-3.34;70.81;100416.38;78244;1292;3052877;-63
2023/01/12 11:09:16;;;;;;;7.90;3.30;;;;;;;-3.28;70.65;100415.76;78077;1300;3051605;-61
2023/01/12 11:11:44;;;;;;;10.30;3.20;;;;;;;-3.31;70.43;100413.84;78531;1292;3069426;-64
2023/01/12 11:14:23;;;;;;;6.60;2.60;;;;;;;-3.24;70.46;100413.06;79710;1291;3014134;-64
2023/01/12 11:16:51;;;;;;;6.40;2.30;;;;;;;-3.18;70.20;100413.30;78248;1297;3049481;-62
2023/01/12 11:19:22;;;;;;;8.20;2.70;;;;;;;-3.22;70.36;100413.59;79479;1291;3021389;-63
2023/01/12 11:21:54;;;;;;;4.60;2.30;;;;;;;-3.19;70.42;100409.86;78333;1296;3051647;-64
2023/01/12 11:24:40;;;;;;;7.00;3.00;;;;;;;-3.11;70.05;100406.69;79955;1295;3011641;-64
2023/01/12 11:27:33;;;;;;;10.80;3.70;;;;;;;-3.08;69.84;100403.29;78380;1292;3069514;-65
2023/01/12 11:30:20;;;;;;;7.10;3.20;;;;;;;-3.13;70.19;100401.85;78504;1294;3052268;-64
2023/01/12 11:32:49;;;;;;;5.90;2.70;;;;;;;-3.22;70.40;100402.79;78358;1295;3057193;-63
2023/01/12 11:35:33;;;;;;;6.10;3.60;;;;;;;-3.18;70.37;100406.10;79665;1294;3012875;-64
2023/01/12 11:38:05;;;;;;;7.30;3.50;;;;;;;-3.16;70.37;100397.89;78547;1292;3053580;-64
2023/01/12 11:40:33;;;;;;;6.60;3.60;;;;;;;-3.15;70.54;100401.33;79820;1294;3013670;-63
2023/01/12 11:46:42;;;;;;;6.00;3.10;;;;;;;-3.12;70.28;100402.05;78669;1295;3054605;-63
2023/01/12 11:49:43;;;;;;;7.10;3.00;;;;;;;-3.12;70.26;100400.50;78299;1296;3068410;-62
2023/01/12 11:52:12;;;;;;;7.10;3.20;;;;;;;-3.10;70.26;100395.20;78323;1291;3051669;-63
2023/01/12 11:54:38;;;;;;;6.10;3.00;;;;;;;-3.11;70.29;100392.80;80056;1291;3015143;-62
2023/01/12 11:57:24;;;;;;;4.60;3.10;;;;;;;-3.06;70.19;100396.45;79882;1291;3011625;-63